sensor_id;sensor_type;location;lat;lon;timestamp;pressure;altitude;pressure_sealevel;temperature;humidity
65784;BME280;52532;53.358;-1.488;2022-07-29T00:00:08;100976.45;;;19.03;42.00
65784;BME280;52532;53.358;-1.488;2022-07-29T00:03:11;100971.47;;;20.74;38.70
65784;BME280;52532;53.358;-1.488;2022-07-29T00:06:14;100968.92;;;20.67;39.70
65784;BME280;52532;53.358;-1.488;2022-07-29T00:09:17;100971.47;;;20.30;38.49
65784;BME280;52532;53.358;-1.488;2022-07-29T00:12:21;100972.38;;;21.23;37.86
65784;BME280;52532;53.358;-1.488;2022-07-29T00:15:25;100972.72;;;19.78;38.81
65784;BME280;52532;53.358;-1.488;2022-07-29T00:18:28;100971.86;;;21.48;37.56
65784;BME280;52532;53.358;-1.488;2022-07-29T00:21:31;100970.34;;;21.60;37.40
65784;BME280;52532;53.358;-1.488;2022-07-29T00:24:34;100974.59;;;19.53;41.74
65784;BME280;52532;53.358;-1.488;2022-07-29T00:27:37;100968.99;;;20.95;38.07
65784;BME280;52532;53.358;-1.488;2022-07-29T00:30:40;100970.66;;;21.06;37.61
65784;BME280;52532;53.358;-1.488;2022-07-29T00:33:45;100968.01;;;20.85;36.91
65784;BME280;52532;53.358;-1.488;2022-07-29T00:36:47;100967.11;;;20.63;37.49
65784;BME280;52532;53.358;-1.488;2022-07-29T00:39:50;100972.00;;;20.17;38.17
65784;BME280;52532;53.358;-1.488;2022-07-29T00:42:53;100972.90;;;21.24;37.56
65784;BME280;52532;53.358;-1.488;2022-07-29T00:45:56;100974.70;;;18.72;41.88
65784;BME280;52532;53.358;-1.488;2022-07-29T00:48:59;100975.00;;;21.08;37.26
65784;BME280;52532;53.358;-1.488;2022-07-29T00:52:03;100972.17;;;19.89;39.56
65784;BME280;52532;53.358;-1.488;2022-07-29T00:55:10;100974.05;;;18.99;41.01
65784;BME280;52532;53.358;-1.488;2022-07-29T00:58:18;100974.03;;;19.85;38.68
65784;BME280;52532;53.358;-1.488;2022-07-29T01:01:21;100975.09;;;21.00;38.30
65784;BME280;52532;53.358;-1.488;2022-07-29T01:04:24;100972.80;;;23.10;34.90
65784;BME280;52532;53.358;-1.488;2022-07-29T01:07:27;100969.69;;;22.19;36.64
65784;BME280;52532;53.358;-1.488;2022-07-29T01:10:31;100972.30;;;22.71;36.74
65784;BME280;52532;53.358;-1.488;2022-07-29T01:13:35;100971.70;;;21.68;37.05
65784;BME280;52532;53.358;-1.488;2022-07-29T01:16:44;100968.25;;;21.40;38.11
65784;BME280;52532;53.358;-1.488;2022-07-29T01:19:53;100965.18;;;19.74;41.38
65784;BME280;52532;53.358;-1.488;2022-07-29T01:23:13;100969.56;;;18.74;42.08
65784;BME280;52532;53.358;-1.488;2022-07-29T01:26:32;100967.33;;;19.87;41.20
65784;BME280;52532;53.358;-1.488;2022-07-29T01:29:40;100964.14;;;20.43;39.57
65784;BME280;52532;53.358;-1.488;2022-07-29T01:32:47;100964.96;;;18.24;44.03
65784;BME280;52532;53.358;-1.488;2022-07-29T01:35:52;100966.63;;;21.71;38.96
65784;BME280;52532;53.358;-1.488;2022-07-29T01:39:01;100969.87;;;22.64;37.30
65784;BME280;52532;53.358;-1.488;2022-07-29T01:42:12;100972.88;;;19.10;42.96
65784;BME280;52532;53.358;-1.488;2022-07-29T01:45:21;100969.87;;;19.67;43.02
65784;BME280;52532;53.358;-1.488;2022-07-29T01:48:33;100966.43;;;18.75;45.32
65784;BME280;52532;53.358;-1.488;2022-07-29T01:51:45;100967.65;;;17.77;47.44
65784;BME280;52532;53.358;-1.488;2022-07-29T01:54:53;100969.59;;;20.08;44.03
65784;BME280;52532;53.358;-1.488;2022-07-29T01:57:59;100968.41;;;16.70;49.57
65784;BME280;52532;53.358;-1.488;2022-07-29T02:01:03;100965.31;;;17.21;50.20
65784;BME280;52532;53.358;-1.488;2022-07-29T02:04:09;100966.74;;;19.61;44.94
65784;BME280;52532;53.358;-1.488;2022-07-29T02:07:15;100965.81;;;19.67;44.69
65784;BME280;52532;53.358;-1.488;2022-07-29T02:10:24;100965.07;;;19.60;44.43
65784;BME280;52532;53.358;-1.488;2022-07-29T02:13:29;100957.90;;;19.62;43.58
65784;BME280;52532;53.358;-1.488;2022-07-29T02:16:36;100959.35;;;19.42;44.57
65784;BME280;52532;53.358;-1.488;2022-07-29T02:19:41;100958.34;;;20.48;43.19
65784;BME280;52532;53.358;-1.488;2022-07-29T02:22:46;100956.42;;;20.20;43.52
65784;BME280;52532;53.358;-1.488;2022-07-29T02:25:53;100959.19;;;20.95;41.81
65784;BME280;52532;53.358;-1.488;2022-07-29T02:28:59;100961.49;;;21.49;41.39
65784;BME280;52532;53.358;-1.488;2022-07-29T02:32:04;100963.36;;;19.39;44.82
65784;BME280;52532;53.358;-1.488;2022-07-29T02:35:08;100966.32;;;18.86;44.55
65784;BME280;52532;53.358;-1.488;2022-07-29T02:38:14;100970.13;;;18.81;45.31
65784;BME280;52532;53.358;-1.488;2022-07-29T02:42:24;100971.35;;;21.02;42.44
65784;BME280;52532;53.358;-1.488;2022-07-29T02:45:29;100971.12;;;21.54;40.43
65784;BME280;52532;53.358;-1.488;2022-07-29T02:48:36;100967.20;;;19.62;43.77
65784;BME280;52532;53.358;-1.488;2022-07-29T02:51:43;100973.69;;;18.76;46.02
65784;BME280;52532;53.358;-1.488;2022-07-29T02:54:51;100967.06;;;20.34;43.73
65784;BME280;52532;53.358;-1.488;2022-07-29T02:57:59;100966.94;;;19.54;45.50
65784;BME280;52532;53.358;-1.488;2022-07-29T03:01:09;100970.46;;;18.25;48.13
65784;BME280;52532;53.358;-1.488;2022-07-29T03:04:14;100966.03;;;20.24;44.30
65784;BME280;52532;53.358;-1.488;2022-07-29T03:07:19;100966.86;;;18.62;47.79
65784;BME280;52532;53.358;-1.488;2022-07-29T03:10:23;100965.11;;;18.13;49.04
65784;BME280;52532;53.358;-1.488;2022-07-29T03:13:28;100962.47;;;20.87;43.57
65784;BME280;52532;53.358;-1.488;2022-07-29T03:16:33;100960.65;;;20.02;44.99
65784;BME280;52532;53.358;-1.488;2022-07-29T03:19:39;100966.00;;;20.34;43.71
65784;BME280;52532;53.358;-1.488;2022-07-29T03:22:43;100966.99;;;20.56;44.09
65784;BME280;52532;53.358;-1.488;2022-07-29T03:25:49;100968.68;;;22.08;42.49
65784;BME280;52532;53.358;-1.488;2022-07-29T03:28:52;100967.40;;;19.41;46.87
65784;BME280;52532;53.358;-1.488;2022-07-29T03:31:55;100967.13;;;18.79;48.31
65784;BME280;52532;53.358;-1.488;2022-07-29T03:34:58;100969.06;;;19.07;47.36
65784;BME280;52532;53.358;-1.488;2022-07-29T03:38:01;100972.31;;;18.22;49.42
65784;BME280;52532;53.358;-1.488;2022-07-29T03:41:07;100966.39;;;20.29;45.31
65784;BME280;52532;53.358;-1.488;2022-07-29T03:44:12;100966.50;;;20.63;44.77
65784;BME280;52532;53.358;-1.488;2022-07-29T03:47:20;100970.86;;;17.76;49.35
65784;BME280;52532;53.358;-1.488;2022-07-29T03:50:25;100970.51;;;19.37;46.25
65784;BME280;52532;53.358;-1.488;2022-07-29T03:53:28;100972.39;;;20.33;45.98
65784;BME280;52532;53.358;-1.488;2022-07-29T03:56:34;100972.85;;;18.92;47.63
65784;BME280;52532;53.358;-1.488;2022-07-29T03:59:40;100969.95;;;21.44;42.68
65784;BME280;52532;53.358;-1.488;2022-07-29T04:02:44;100965.88;;;19.64;47.21
65784;BME280;52532;53.358;-1.488;2022-07-29T04:06:00;100961.67;;;20.12;46.98
65784;BME280;52532;53.358;-1.488;2022-07-29T04:12:01;100964.73;;;19.70;46.73
65784;BME280;52532;53.358;-1.488;2022-07-29T04:15:04;100966.20;;;20.10;45.60
65784;BME280;52532;53.358;-1.488;2022-07-29T04:18:07;100974.35;;;18.68;49.10
65784;BME280;52532;53.358;-1.488;2022-07-29T04:21:10;100978.05;;;19.33;47.94
65784;BME280;52532;53.358;-1.488;2022-07-29T04:26:56;100974.95;;;20.69;45.10
65784;BME280;52532;53.358;-1.488;2022-07-29T04:29:59;100973.08;;;21.41;44.97
65784;BME280;52532;53.358;-1.488;2022-07-29T04:33:04;100971.96;;;20.17;47.19
65784;BME280;52532;53.358;-1.488;2022-07-29T04:36:07;100972.93;;;20.56;45.92
65784;BME280;52532;53.358;-1.488;2022-07-29T04:39:10;100978.67;;;19.15;48.70
65784;BME280;52532;53.358;-1.488;2022-07-29T04:42:13;100977.48;;;17.13;52.45
65784;BME280;52532;53.358;-1.488;2022-07-29T04:45:16;100977.89;;;18.48;49.59
65784;BME280;52532;53.358;-1.488;2022-07-29T04:48:19;100972.76;;;16.78;53.03
65784;BME280;52532;53.358;-1.488;2022-07-29T04:51:23;100972.17;;;20.54;47.06
65784;BME280;52532;53.358;-1.488;2022-07-29T04:54:26;100980.76;;;19.02;48.66
65784;BME280;52532;53.358;-1.488;2022-07-29T04:57:29;100977.88;;;19.48;48.61
65784;BME280;52532;53.358;-1.488;2022-07-29T05:00:32;100981.11;;;19.24;49.00
65784;BME280;52532;53.358;-1.488;2022-07-29T05:03:36;100980.71;;;19.77;47.84
65784;BME280;52532;53.358;-1.488;2022-07-29T05:06:39;100986.53;;;18.62;50.11
65784;BME280;52532;53.358;-1.488;2022-07-29T05:09:42;100991.58;;;19.31;49.95
65784;BME280;52532;53.358;-1.488;2022-07-29T05:12:45;100990.45;;;17.10;54.08
65784;BME280;52532;53.358;-1.488;2022-07-29T05:15:47;100994.21;;;17.95;51.30
65784;BME280;52532;53.358;-1.488;2022-07-29T05:18:50;100993.45;;;20.38;47.20
65784;BME280;52532;53.358;-1.488;2022-07-29T05:21:53;100994.42;;;20.03;47.98
65784;BME280;52532;53.358;-1.488;2022-07-29T05:24:56;100999.51;;;18.23;50.68
65784;BME280;52532;53.358;-1.488;2022-07-29T05:27:59;101003.30;;;18.66;50.67
65784;BME280;52532;53.358;-1.488;2022-07-29T05:31:02;101003.49;;;18.31;51.52
65784;BME280;52532;53.358;-1.488;2022-07-29T05:34:05;101005.01;;;19.27;49.82
65784;BME280;52532;53.358;-1.488;2022-07-29T05:37:08;101001.72;;;21.00;45.74
65784;BME280;52532;53.358;-1.488;2022-07-29T05:40:11;101001.93;;;19.53;48.24
65784;BME280;52532;53.358;-1.488;2022-07-29T05:43:14;101007.45;;;21.53;44.64
65784;BME280;52532;53.358;-1.488;2022-07-29T05:46:17;101009.71;;;19.89;47.45
65784;BME280;52532;53.358;-1.488;2022-07-29T05:49:20;101012.70;;;22.52;43.66
65784;BME280;52532;53.358;-1.488;2022-07-29T05:52:23;101015.28;;;20.41;46.86
65784;BME280;52532;53.358;-1.488;2022-07-29T05:55:26;101019.67;;;22.35;42.94
65784;BME280;52532;53.358;-1.488;2022-07-29T05:58:29;101024.38;;;22.51;42.19
65784;BME280;52532;53.358;-1.488;2022-07-29T06:01:31;101021.66;;;20.63;46.36
65784;BME280;52532;53.358;-1.488;2022-07-29T06:04:34;101021.26;;;20.12;46.61
65784;BME280;52532;53.358;-1.488;2022-07-29T06:07:37;101024.15;;;19.52;47.57
65784;BME280;52532;53.358;-1.488;2022-07-29T06:10:40;101025.73;;;21.52;44.73
65784;BME280;52532;53.358;-1.488;2022-07-29T06:13:43;101028.78;;;19.01;49.64
65784;BME280;52532;53.358;-1.488;2022-07-29T06:16:46;101024.21;;;20.16;48.55
65784;BME280;52532;53.358;-1.488;2022-07-29T06:19:49;101030.56;;;19.59;51.11
65784;BME280;52532;53.358;-1.488;2022-07-29T06:22:52;101028.44;;;20.93;47.64
65784;BME280;52532;53.358;-1.488;2022-07-29T06:25:55;101032.26;;;21.88;46.50
65784;BME280;52532;53.358;-1.488;2022-07-29T06:28:58;101033.86;;;22.28;45.52
65784;BME280;52532;53.358;-1.488;2022-07-29T06:32:01;101034.24;;;18.87;51.89
65784;BME280;52532;53.358;-1.488;2022-07-29T06:35:05;101027.09;;;20.30;49.64
65784;BME280;52532;53.358;-1.488;2022-07-29T06:38:08;101034.37;;;20.73;48.42
65784;BME280;52532;53.358;-1.488;2022-07-29T06:41:11;101033.01;;;20.67;49.84
65784;BME280;52532;53.358;-1.488;2022-07-29T06:44:15;101041.25;;;18.72;53.17
65784;BME280;52532;53.358;-1.488;2022-07-29T06:47:18;101037.68;;;20.54;50.70
65784;BME280;52532;53.358;-1.488;2022-07-29T06:50:21;101042.62;;;16.95;56.84
65784;BME280;52532;53.358;-1.488;2022-07-29T06:53:24;101039.04;;;18.10;57.79
65784;BME280;52532;53.358;-1.488;2022-07-29T06:56:26;101038.73;;;20.40;51.30
65784;BME280;52532;53.358;-1.488;2022-07-29T06:59:29;101043.32;;;17.73;58.07
65784;BME280;52532;53.358;-1.488;2022-07-29T07:02:32;101044.48;;;15.86;61.43
65784;BME280;52532;53.358;-1.488;2022-07-29T07:05:35;101040.74;;;18.58;55.89
65784;BME280;52532;53.358;-1.488;2022-07-29T07:08:38;101035.68;;;18.10;56.01
65784;BME280;52532;53.358;-1.488;2022-07-29T07:11:41;101039.74;;;18.44;56.49
65784;BME280;52532;53.358;-1.488;2022-07-29T07:14:44;101043.58;;;18.53;56.00
65784;BME280;52532;53.358;-1.488;2022-07-29T07:17:47;101046.34;;;18.78;55.31
65784;BME280;52532;53.358;-1.488;2022-07-29T07:20:50;101054.02;;;19.16;53.58
65784;BME280;52532;53.358;-1.488;2022-07-29T07:23:53;101047.54;;;20.77;51.10
65784;BME280;52532;53.358;-1.488;2022-07-29T07:26:56;101050.20;;;21.95;48.62
65784;BME280;52532;53.358;-1.488;2022-07-29T07:30:04;101055.46;;;18.89;54.04
65784;BME280;52532;53.358;-1.488;2022-07-29T07:33:08;101050.78;;;21.02;50.17
65784;BME280;52532;53.358;-1.488;2022-07-29T07:36:11;101058.11;;;19.53;52.86
65784;BME280;52532;53.358;-1.488;2022-07-29T07:39:14;101056.84;;;21.00;49.53
65784;BME280;52532;53.358;-1.488;2022-07-29T07:42:18;101057.49;;;20.73;50.83
65784;BME280;52532;53.358;-1.488;2022-07-29T07:45:21;101057.60;;;19.69;52.64
65784;BME280;52532;53.358;-1.488;2022-07-29T07:48:24;101058.06;;;19.82;51.83
65784;BME280;52532;53.358;-1.488;2022-07-29T07:51:26;101063.72;;;18.92;54.37
65784;BME280;52532;53.358;-1.488;2022-07-29T07:54:29;101061.48;;;21.05;50.83
65784;BME280;52532;53.358;-1.488;2022-07-29T07:57:33;101060.10;;;20.89;50.18
65784;BME280;52532;53.358;-1.488;2022-07-29T08:00:36;101059.68;;;20.48;50.59
65784;BME280;52532;53.358;-1.488;2022-07-29T08:03:44;101063.34;;;21.46;49.06
65784;BME280;52532;53.358;-1.488;2022-07-29T08:06:49;101058.89;;;20.79;49.39
65784;BME280;52532;53.358;-1.488;2022-07-29T08:09:53;101056.11;;;17.67;56.05
65784;BME280;52532;53.358;-1.488;2022-07-29T08:12:56;101054.92;;;20.94;49.15
65784;BME280;52532;53.358;-1.488;2022-07-29T08:15:59;101052.63;;;20.96;49.39
65784;BME280;52532;53.358;-1.488;2022-07-29T08:19:03;101051.83;;;17.94;55.07
65784;BME280;52532;53.358;-1.488;2022-07-29T08:22:06;101054.63;;;16.47;59.16
65784;BME280;52532;53.358;-1.488;2022-07-29T08:25:09;101053.82;;;18.46;56.13
65784;BME280;52532;53.358;-1.488;2022-07-29T08:28:12;101056.05;;;17.48;58.39
65784;BME280;52532;53.358;-1.488;2022-07-29T08:31:17;101056.05;;;21.43;49.89
65784;BME280;52532;53.358;-1.488;2022-07-29T08:34:20;101057.03;;;21.62;50.01
65784;BME280;52532;53.358;-1.488;2022-07-29T08:37:23;101058.66;;;19.58;54.44
65784;BME280;52532;53.358;-1.488;2022-07-29T08:40:26;101056.62;;;19.75;54.61
65784;BME280;52532;53.358;-1.488;2022-07-29T08:43:29;101054.63;;;18.78;53.58
65784;BME280;52532;53.358;-1.488;2022-07-29T08:46:32;101059.89;;;19.74;52.53
65784;BME280;52532;53.358;-1.488;2022-07-29T08:49:36;101057.52;;;18.60;53.39
65784;BME280;52532;53.358;-1.488;2022-07-29T08:52:41;101054.83;;;17.94;56.09
65784;BME280;52532;53.358;-1.488;2022-07-29T08:55:45;101054.20;;;17.35;56.96
65784;BME280;52532;53.358;-1.488;2022-07-29T08:58:50;101057.14;;;14.60;65.24
65784;BME280;52532;53.358;-1.488;2022-07-29T09:02:00;101053.29;;;19.20;56.08
65784;BME280;52532;53.358;-1.488;2022-07-29T09:05:05;101045.81;;;21.45;50.85
65784;BME280;52532;53.358;-1.488;2022-07-29T09:11:09;101050.70;;;20.16;53.40
65784;BME280;52532;53.358;-1.488;2022-07-29T09:14:14;101051.89;;;17.14;63.13
65784;BME280;52532;53.358;-1.488;2022-07-29T09:17:20;101046.13;;;19.78;58.82
65784;BME280;52532;53.358;-1.488;2022-07-29T09:20:52;101043.11;;;19.49;59.55
65784;BME280;52532;53.358;-1.488;2022-07-29T09:25:33;101045.34;;;18.56;63.23
65784;BME280;52532;53.358;-1.488;2022-07-29T09:28:42;101047.11;;;18.20;65.57
65784;BME280;52532;53.358;-1.488;2022-07-29T09:31:47;101043.58;;;19.60;62.70
65784;BME280;52532;53.358;-1.488;2022-07-29T09:34:51;101046.76;;;19.21;62.04
65784;BME280;52532;53.358;-1.488;2022-07-29T09:37:55;101048.26;;;19.58;60.68
65784;BME280;52532;53.358;-1.488;2022-07-29T09:41:01;101052.52;;;17.63;64.22
65784;BME280;52532;53.358;-1.488;2022-07-29T09:44:05;101053.85;;;18.40;62.83
65784;BME280;52532;53.358;-1.488;2022-07-29T09:47:08;101049.46;;;19.70;59.62
65784;BME280;52532;53.358;-1.488;2022-07-29T09:50:11;101047.29;;;19.31;60.70
65784;BME280;52532;53.358;-1.488;2022-07-29T09:53:30;101044.77;;;16.49;67.58
65784;BME280;52532;53.358;-1.488;2022-07-29T09:56:41;101045.25;;;18.82;61.50
65784;BME280;52532;53.358;-1.488;2022-07-29T09:59:56;101046.84;;;20.37;56.76
65784;BME280;52532;53.358;-1.488;2022-07-29T10:03:00;101039.70;;;18.62;61.11
65784;BME280;52532;53.358;-1.488;2022-07-29T10:06:06;101046.30;;;20.02;55.77
65784;BME280;52532;53.358;-1.488;2022-07-29T10:09:10;101053.55;;;19.99;56.24
65784;BME280;52532;53.358;-1.488;2022-07-29T10:12:13;101045.77;;;21.10;52.40
65784;BME280;52532;53.358;-1.488;2022-07-29T10:15:17;101045.20;;;21.33;52.41
65784;BME280;52532;53.358;-1.488;2022-07-29T10:18:25;101045.46;;;18.81;55.98
65784;BME280;52532;53.358;-1.488;2022-07-29T10:21:29;101045.96;;;20.05;55.84
65784;BME280;52532;53.358;-1.488;2022-07-29T10:24:33;101045.12;;;16.78;62.34
65784;BME280;52532;53.358;-1.488;2022-07-29T10:27:37;101045.84;;;16.73;65.27
65784;BME280;52532;53.358;-1.488;2022-07-29T10:30:41;101042.58;;;20.68;52.46
65784;BME280;52532;53.358;-1.488;2022-07-29T10:33:54;101045.68;;;20.68;54.64
65784;BME280;52532;53.358;-1.488;2022-07-29T10:37:11;101049.54;;;20.30;56.47
65784;BME280;52532;53.358;-1.488;2022-07-29T10:40:28;101045.41;;;19.79;57.36
65784;BME280;52532;53.358;-1.488;2022-07-29T10:44:40;101046.72;;;20.59;55.17
65784;BME280;52532;53.358;-1.488;2022-07-29T10:47:45;101043.16;;;21.16;52.81
65784;BME280;52532;53.358;-1.488;2022-07-29T10:50:57;101043.73;;;19.39;55.01
65784;BME280;52532;53.358;-1.488;2022-07-29T10:54:02;101047.12;;;19.48;56.26
65784;BME280;52532;53.358;-1.488;2022-07-29T10:57:16;101039.87;;;22.22;47.86
65784;BME280;52532;53.358;-1.488;2022-07-29T11:00:29;101037.37;;;22.54;45.91
65784;BME280;52532;53.358;-1.488;2022-07-29T11:03:48;101038.72;;;21.46;49.77
65784;BME280;52532;53.358;-1.488;2022-07-29T11:07:10;101041.54;;;19.39;54.23
65784;BME280;52532;53.358;-1.488;2022-07-29T11:10:22;101039.96;;;20.38;52.35
65784;BME280;52532;53.358;-1.488;2022-07-29T11:13:57;101041.56;;;20.00;55.61
65784;BME280;52532;53.358;-1.488;2022-07-29T11:17:03;101044.78;;;20.01;54.60
65784;BME280;52532;53.358;-1.488;2022-07-29T11:20:41;101045.54;;;19.79;52.50
65784;BME280;52532;53.358;-1.488;2022-07-29T11:23:44;101044.97;;;21.47;48.23
65784;BME280;52532;53.358;-1.488;2022-07-29T11:27:21;101046.82;;;22.72;48.50
65784;BME280;52532;53.358;-1.488;2022-07-29T11:30:47;101055.84;;;20.59;51.23
65784;BME280;52532;53.358;-1.488;2022-07-29T11:33:51;101058.14;;;20.17;51.31
65784;BME280;52532;53.358;-1.488;2022-07-29T11:37:26;101055.66;;;19.18;55.14
65784;BME280;52532;53.358;-1.488;2022-07-29T11:40:29;101056.20;;;20.65;51.60
65784;BME280;52532;53.358;-1.488;2022-07-29T11:46:46;101049.06;;;20.34;53.36
65784;BME280;52532;53.358;-1.488;2022-07-29T11:49:50;101041.96;;;21.31;52.13
65784;BME280;52532;53.358;-1.488;2022-07-29T11:52:53;101037.33;;;20.74;51.39
65784;BME280;52532;53.358;-1.488;2022-07-29T11:55:59;101039.70;;;20.39;55.29
65784;BME280;52532;53.358;-1.488;2022-07-29T11:59:08;101043.46;;;20.54;55.41
65784;BME280;52532;53.358;-1.488;2022-07-29T12:02:12;101037.35;;;17.65;61.01
65784;BME280;52532;53.358;-1.488;2022-07-29T12:05:16;101038.70;;;20.47;55.41
65784;BME280;52532;53.358;-1.488;2022-07-29T12:08:21;101033.09;;;18.66;55.05
65784;BME280;52532;53.358;-1.488;2022-07-29T12:11:25;101029.06;;;21.32;49.88
65784;BME280;52532;53.358;-1.488;2022-07-29T12:14:29;101031.24;;;18.89;57.71
65784;BME280;52532;53.358;-1.488;2022-07-29T12:17:34;101030.43;;;21.48;49.63
65784;BME280;52532;53.358;-1.488;2022-07-29T12:20:37;101029.62;;;21.58;49.53
65784;BME280;52532;53.358;-1.488;2022-07-29T12:23:52;101030.30;;;21.42;49.13
65784;BME280;52532;53.358;-1.488;2022-07-29T12:26:58;101017.20;;;20.84;47.98
65784;BME280;52532;53.358;-1.488;2022-07-29T12:30:04;101019.57;;;22.28;46.70
65784;BME280;52532;53.358;-1.488;2022-07-29T12:33:16;101017.43;;;19.50;55.40
65784;BME280;52532;53.358;-1.488;2022-07-29T12:36:20;101007.89;;;18.23;58.07
65784;BME280;52532;53.358;-1.488;2022-07-29T12:39:23;101008.12;;;17.70;60.77
65784;BME280;52532;53.358;-1.488;2022-07-29T12:42:28;101010.88;;;21.00;51.89
65784;BME280;52532;53.358;-1.488;2022-07-29T12:45:31;101012.18;;;20.91;49.98
65784;BME280;52532;53.358;-1.488;2022-07-29T12:48:35;101004.75;;;21.41;48.61
65784;BME280;52532;53.358;-1.488;2022-07-29T12:51:39;101012.13;;;19.18;53.60
65784;BME280;52532;53.358;-1.488;2022-07-29T12:54:46;101013.27;;;21.34;49.06
65784;BME280;52532;53.358;-1.488;2022-07-29T12:57:50;101014.32;;;22.75;47.39
65784;BME280;52532;53.358;-1.488;2022-07-29T13:01:04;101016.89;;;22.53;46.93
65784;BME280;52532;53.358;-1.488;2022-07-29T13:04:09;101018.11;;;20.00;51.45
65784;BME280;52532;53.358;-1.488;2022-07-29T13:07:13;101024.41;;;19.48;54.73
65784;BME280;52532;53.358;-1.488;2022-07-29T13:10:26;101024.45;;;21.39;47.15
65784;BME280;52532;53.358;-1.488;2022-07-29T13:13:31;101024.87;;;21.70;47.49
65784;BME280;52532;53.358;-1.488;2022-07-29T13:16:34;101023.07;;;23.42;43.76
65784;BME280;52532;53.358;-1.488;2022-07-29T13:19:39;101022.99;;;20.84;48.81
65784;BME280;52532;53.358;-1.488;2022-07-29T13:22:46;101021.22;;;21.13;48.13
65784;BME280;52532;53.358;-1.488;2022-07-29T13:25:49;101020.45;;;23.24;42.94
65784;BME280;52532;53.358;-1.488;2022-07-29T13:28:52;101018.96;;;22.08;44.25
65784;BME280;52532;53.358;-1.488;2022-07-29T13:31:56;101016.20;;;20.60;46.99
65784;BME280;52532;53.358;-1.488;2022-07-29T13:35:00;101018.35;;;23.06;42.28
65784;BME280;52532;53.358;-1.488;2022-07-29T13:38:04;101012.75;;;19.77;48.60
65784;BME280;52532;53.358;-1.488;2022-07-29T13:41:07;101017.09;;;24.30;41.00
65784;BME280;52532;53.358;-1.488;2022-07-29T13:44:09;101014.95;;;22.95;43.81
65784;BME280;52532;53.358;-1.488;2022-07-29T13:47:13;101015.84;;;24.38;40.09
65784;BME280;52532;53.358;-1.488;2022-07-29T13:50:16;101007.26;;;24.41;38.58
65784;BME280;52532;53.358;-1.488;2022-07-29T13:53:19;101000.94;;;23.38;40.24
65784;BME280;52532;53.358;-1.488;2022-07-29T13:56:22;100991.23;;;23.00;41.67
65784;BME280;52532;53.358;-1.488;2022-07-29T13:59:25;100984.20;;;20.34;49.66
65784;BME280;52532;53.358;-1.488;2022-07-29T14:02:27;100981.02;;;21.51;45.44
65784;BME280;52532;53.358;-1.488;2022-07-29T14:05:31;100978.24;;;22.60;42.82
65784;BME280;52532;53.358;-1.488;2022-07-29T14:08:34;100974.18;;;23.07;42.33
65784;BME280;52532;53.358;-1.488;2022-07-29T14:11:37;100978.30;;;23.67;42.27
65784;BME280;52532;53.358;-1.488;2022-07-29T14:14:40;100981.42;;;23.10;40.68
65784;BME280;52532;53.358;-1.488;2022-07-29T14:17:43;100984.57;;;22.57;41.22
65784;BME280;52532;53.358;-1.488;2022-07-29T14:20:46;100986.78;;;19.74;47.62
65784;BME280;52532;53.358;-1.488;2022-07-29T14:23:49;100989.94;;;20.74;45.19
65784;BME280;52532;53.358;-1.488;2022-07-29T14:26:54;100995.52;;;23.64;39.18
65784;BME280;52532;53.358;-1.488;2022-07-29T14:29:58;100992.14;;;20.50;45.64
65784;BME280;52532;53.358;-1.488;2022-07-29T14:33:01;100993.19;;;23.39;39.98
65784;BME280;52532;53.358;-1.488;2022-07-29T14:36:04;100982.59;;;21.49;46.19
65784;BME280;52532;53.358;-1.488;2022-07-29T14:39:14;100984.62;;;23.50;40.77
65784;BME280;52532;53.358;-1.488;2022-07-29T14:42:19;100984.47;;;22.45;43.31
65784;BME280;52532;53.358;-1.488;2022-07-29T14:45:23;100984.74;;;20.18;45.08
65784;BME280;52532;53.358;-1.488;2022-07-29T14:48:27;100988.30;;;22.71;42.75
65784;BME280;52532;53.358;-1.488;2022-07-29T14:51:31;100987.15;;;25.69;36.55
65784;BME280;52532;53.358;-1.488;2022-07-29T14:54:34;100984.91;;;24.88;36.96
65784;BME280;52532;53.358;-1.488;2022-07-29T14:57:36;100980.44;;;24.65;37.69
65784;BME280;52532;53.358;-1.488;2022-07-29T15:00:39;100980.96;;;24.64;37.73
65784;BME280;52532;53.358;-1.488;2022-07-29T15:03:42;100980.80;;;23.35;40.60
65784;BME280;52532;53.358;-1.488;2022-07-29T15:06:45;100984.19;;;24.50;39.06
65784;BME280;52532;53.358;-1.488;2022-07-29T15:09:48;100985.63;;;22.43;39.58
65784;BME280;52532;53.358;-1.488;2022-07-29T15:12:52;100979.93;;;24.74;37.03
65784;BME280;52532;53.358;-1.488;2022-07-29T15:15:55;100981.23;;;25.17;36.36
65784;BME280;52532;53.358;-1.488;2022-07-29T15:19:00;100984.08;;;23.55;38.09
65784;BME280;52532;53.358;-1.488;2022-07-29T15:22:05;100979.14;;;24.97;36.21
65784;BME280;52532;53.358;-1.488;2022-07-29T15:25:09;100977.74;;;25.53;36.07
65784;BME280;52532;53.358;-1.488;2022-07-29T15:28:14;100983.44;;;23.73;39.23
65784;BME280;52532;53.358;-1.488;2022-07-29T15:31:18;100976.90;;;21.71;43.46
65784;BME280;52532;53.358;-1.488;2022-07-29T15:34:22;100978.72;;;23.28;41.40
65784;BME280;52532;53.358;-1.488;2022-07-29T15:37:26;100974.22;;;20.88;47.43
65784;BME280;52532;53.358;-1.488;2022-07-29T15:40:30;100973.19;;;23.79;41.61
65784;BME280;52532;53.358;-1.488;2022-07-29T15:43:33;100970.59;;;24.28;39.61
65784;BME280;52532;53.358;-1.488;2022-07-29T15:46:37;100972.22;;;23.73;39.76
65784;BME280;52532;53.358;-1.488;2022-07-29T15:50:12;100974.16;;;24.30;39.23
65784;BME280;52532;53.358;-1.488;2022-07-29T15:53:17;100969.73;;;22.98;41.36
65784;BME280;52532;53.358;-1.488;2022-07-29T15:56:21;100968.53;;;22.71;41.13
65784;BME280;52532;53.358;-1.488;2022-07-29T15:59:25;100969.98;;;22.44;41.27
65784;BME280;52532;53.358;-1.488;2022-07-29T16:02:29;100968.90;;;24.01;40.48
65784;BME280;52532;53.358;-1.488;2022-07-29T16:05:33;100970.27;;;23.07;41.47
65784;BME280;52532;53.358;-1.488;2022-07-29T16:08:38;100963.92;;;24.04;39.53
65784;BME280;52532;53.358;-1.488;2022-07-29T16:11:42;100957.17;;;23.63;39.77